Time;durP1;ratioP1;P1;durP2;ratioP2;P2;SDS_P1;SDS_P2;PMS_P1;PMS_P2;Temp;Humidity;BMP_temperature;BMP_pressure;BME280_temperature;BME280_humidity;BME280_pressure;Samples;Min_cycle;Max_cycle;Signal;HPM_P1;HPM_P2
2023/06/07 00:00:55;;;;;;;8.30;4.47;;;;;;;20.43;38.63;100492.91;5133510;27;20679;-62
2023/06/07 00:03:23;;;;;;;6.53;4.10;;;;;;;20.35;38.45;100486.34;5132020;27;20203;-62
2023/06/07 00:05:51;;;;;;;6.15;4.47;;;;;;;20.25;38.84;100484.16;5122887;27;20641;-61
2023/06/07 00:08:20;;;;;;;6.10;4.35;;;;;;;20.21;38.74;100486.94;5129251;27;20574;-61
2023/06/07 00:10:49;;;;;;;10.85;4.63;;;;;;;20.15;38.78;100498.56;5128681;27;20375;-63
2023/06/07 00:13:18;;;;;;;6.28;4.05;;;;;;;20.11;39.01;100480.44;5130751;27;20317;-61
2023/06/07 00:15:45;;;;;;;4.90;4.18;;;;;;;20.08;38.76;100486.66;5132551;27;20238;-63
2023/06/07 00:18:15;;;;;;;6.57;4.05;;;;;;;20.07;38.86;100489.31;5129711;27;20210;-61
2023/06/07 00:20:44;;;;;;;8.48;4.65;;;;;;;20.03;38.70;100483.41;5132093;27;20244;-61
2023/06/07 00:23:13;;;;;;;8.07;4.40;;;;;;;20.03;39.05;100486.88;5134469;27;20229;-63
2023/06/07 00:25:41;;;;;;;6.65;4.03;;;;;;;20.03;38.85;100483.41;5128017;27;20273;-62
2023/06/07 00:28:10;;;;;;;6.45;3.90;;;;;;;20.01;38.99;100482.59;5129010;27;20203;-62
2023/06/07 00:30:39;;;;;;;10.43;5.65;;;;;;;19.99;38.73;100481.81;5129563;27;20199;-62
2023/06/07 00:33:07;;;;;;;9.45;5.13;;;;;;;19.96;38.82;100479.34;5130750;27;20657;-61
2023/06/07 00:35:35;;;;;;;6.72;4.47;;;;;;;19.95;38.97;100482.88;5133181;27;20205;-61
2023/06/07 00:38:05;;;;;;;6.63;3.85;;;;;;;19.95;39.08;100477.63;5129751;27;20199;-62
2023/06/07 00:40:33;;;;;;;8.25;4.32;;;;;;;19.94;39.04;100474.16;5130829;27;20230;-63
2023/06/07 00:43:01;;;;;;;5.15;4.25;;;;;;;19.95;38.99;100480.25;5129927;27;20206;-62
2023/06/07 00:45:31;;;;;;;5.85;4.18;;;;;;;19.93;38.94;100479.47;5134805;27;20191;-61
2023/06/07 00:47:59;;;;;;;7.88;4.20;;;;;;;19.88;38.97;100466.56;5130879;27;20282;-63
2023/06/07 00:50:28;;;;;;;11.02;4.70;;;;;;;19.87;39.02;100466.66;5132234;27;20199;-62
2023/06/07 00:52:56;;;;;;;8.15;4.30;;;;;;;19.85;38.92;100465.91;5132831;27;20568;-63
2023/06/07 00:55:25;;;;;;;5.22;4.72;;;;;;;19.83;39.04;100465.09;5132777;27;20202;-62
2023/06/07 00:57:53;;;;;;;6.63;4.57;;;;;;;19.82;38.92;100464.25;5131863;28;20300;-62
2023/06/07 01:00:22;;;;;;;5.80;3.88;;;;;;;19.82;39.17;100468.63;5128399;27;20207;-62
2023/06/07 01:02:51;;;;;;;6.32;4.82;;;;;;;19.79;38.94;100465.22;5130275;27;20196;-62
2023/06/07 01:05:20;;;;;;;7.63;4.60;;;;;;;19.80;39.14;100463.44;5126250;27;20546;-63
2023/06/07 01:07:49;;;;;;;6.15;3.95;;;;;;;19.82;38.97;100468.63;5133867;27;20217;-61
2023/06/07 01:10:18;;;;;;;7.68;4.10;;;;;;;19.82;38.99;100464.25;5133805;27;20640;-62
2023/06/07 01:12:49;;;;;;;6.20;4.63;;;;;;;19.84;38.93;100461.56;5132017;27;20350;-61
2023/06/07 01:15:19;;;;;;;7.65;4.32;;;;;;;19.85;38.76;100468.50;5133630;27;20663;-61
2023/06/07 01:17:48;;;;;;;5.25;4.57;;;;;;;19.83;39.03;100465.09;5134104;27;20240;-63
2023/06/07 01:20:22;;;;;;;5.18;4.25;;;;;;;19.78;38.99;100460.91;5132724;27;20195;-63
2023/06/07 01:22:52;;;;;;;6.47;4.30;;;;;;;19.76;39.33;100469.72;5134729;27;20565;-62
2023/06/07 01:25:21;;;;;;;8.63;4.85;;;;;;;19.71;39.60;100464.72;5133600;27;20235;-62
2023/06/07 01:27:52;;;;;;;7.00;4.43;;;;;;;19.66;39.47;100458.84;5134453;27;20746;-62
2023/06/07 01:30:21;;;;;;;5.38;4.43;;;;;;;19.62;39.49;100452.00;5133168;27;20203;-62
2023/06/07 01:32:51;;;;;;;4.82;4.30;;;;;;;19.60;39.54;100461.66;5137650;27;20218;-62
2023/06/07 01:35:20;;;;;;;7.55;4.90;;;;;;;19.58;39.57;100462.63;5133894;27;20211;-64
2023/06/07 01:37:49;;;;;;;11.18;5.07;;;;;;;19.52;39.64;100464.59;5132807;27;20635;-60
2023/06/07 01:40:18;;;;;;;7.10;4.60;;;;;;;19.48;39.84;100459.56;5133926;27;20676;-59
2023/06/07 01:42:48;;;;;;;6.15;4.70;;;;;;;19.46;39.84;100453.56;5132940;27;20207;-59
2023/06/07 01:45:16;;;;;;;7.82;4.93;;;;;;;19.42;40.02;100454.59;5132309;27;20211;-61
2023/06/07 01:47:44;;;;;;;7.38;4.50;;;;;;;19.41;40.42;100461.59;5131031;27;20199;-59
2023/06/07 01:50:20;;;;;;;6.15;4.93;;;;;;;19.41;40.41;100460.75;5127000;27;20255;-61
2023/06/07 01:52:48;;;;;;;7.30;5.07;;;;;;;19.38;40.83;100453.03;5135580;27;20203;-59
2023/06/07 01:55:17;;;;;;;8.70;5.28;;;;;;;19.35;40.82;100453.16;5133582;27;20700;-58
2023/06/07 01:57:56;;;;;;;9.52;5.20;;;;;;;19.29;41.10;100465.56;5135245;27;20214;-61
2023/06/07 02:00:28;;;;;;;9.63;5.63;;;;;;;19.23;41.57;100464.97;5129905;27;20209;-60
2023/06/07 02:02:59;;;;;;;8.70;5.68;;;;;;;19.16;41.85;100458.28;5135523;27;20214;-60
2023/06/07 02:05:34;;;;;;;12.43;6.90;;;;;;;19.10;42.14;100471.56;5132039;27;20206;-58
2023/06/07 02:08:13;;;;;;;8.95;6.65;;;;;;;19.02;42.71;100456.22;5132183;27;20566;-61
2023/06/07 02:10:43;;;;;;;10.88;6.88;;;;;;;18.93;42.79;100453.97;5133667;27;20573;-60
2023/06/07 02:13:14;;;;;;;11.98;7.03;;;;;;;18.87;43.04;100452.44;5135322;27;20214;-59
2023/06/07 02:15:45;;;;;;;15.52;7.30;;;;;;;18.81;43.28;100458.78;5133985;27;20204;-60
2023/06/07 02:18:19;;;;;;;17.52;9.23;;;;;;;18.71;43.63;100454.81;5131958;27;20206;-60
2023/06/07 02:20:47;;;;;;;20.95;9.75;;;;;;;18.65;43.68;100454.16;5119619;27;20211;-59
2023/06/07 02:23:15;;;;;;;16.70;9.85;;;;;;;18.57;43.98;100459.69;5132683;27;20219;-59
2023/06/07 02:25:43;;;;;;;21.00;11.43;;;;;;;18.47;44.27;100453.94;5131525;27;20241;-60
2023/06/07 02:28:13;;;;;;;24.58;12.07;;;;;;;18.42;44.35;100455.03;5130774;27;20240;-59
2023/06/07 02:30:41;;;;;;;20.67;10.45;;;;;;;18.39;44.50;100457.75;5136436;27;20314;-60
2023/06/07 02:33:13;;;;;;;21.17;10.93;;;;;;;18.34;44.52;100455.31;5133290;27;20211;-59
2023/06/07 02:35:41;;;;;;;19.80;10.75;;;;;;;18.31;44.60;100453.66;5133362;27;20192;-60
2023/06/07 02:38:09;;;;;;;17.23;10.38;;;;;;;18.28;44.80;100451.16;5129536;27;20209;-59
2023/06/07 02:40:37;;;;;;;19.52;10.43;;;;;;;18.26;44.57;100449.50;5132128;27;20223;-59
2023/06/07 02:43:05;;;;;;;19.25;10.63;;;;;;;18.24;44.79;100448.75;5133096;27;20207;-60
2023/06/07 02:45:35;;;;;;;20.00;10.73;;;;;;;18.20;44.35;100453.22;5124513;27;20202;-59
2023/06/07 02:48:03;;;;;;;21.00;10.57;;;;;;;18.16;44.56;100453.38;5131976;27;20191;-59
2023/06/07 02:50:31;;;;;;;19.42;10.43;;;;;;;18.12;44.50;100457.03;5131719;27;20230;-58
2023/06/07 02:53:01;;;;;;;18.63;10.13;;;;;;;18.09;44.64;100457.97;5131907;27;20207;-59
2023/06/07 02:55:29;;;;;;;21.45;11.02;;;;;;;18.07;44.49;100462.38;5131906;27;20219;-59
2023/06/07 02:57:58;;;;;;;21.17;10.73;;;;;;;18.06;44.85;100458.06;5131926;27;20661;-59
2023/06/07 03:00:26;;;;;;;21.35;11.30;;;;;;;18.08;44.64;100461.50;5133200;27;20559;-60
2023/06/07 03:02:55;;;;;;;17.10;10.27;;;;;;;18.07;44.79;100459.78;5136219;27;20223;-58
2023/06/07 03:05:26;;;;;;;21.48;10.68;;;;;;;18.04;44.76;100458.16;5131844;27;20201;-58
2023/06/07 03:07:56;;;;;;;21.05;9.73;;;;;;;18.03;44.86;100459.03;5132544;27;20203;-59
2023/06/07 03:10:24;;;;;;;24.10;11.25;;;;;;;18.02;44.72;100456.50;5128555;27;20211;-59
2023/06/07 03:12:52;;;;;;;24.38;12.68;;;;;;;18.03;44.73;100466.84;5130265;27;20207;-58
2023/06/07 03:15:20;;;;;;;22.20;11.60;;;;;;;18.07;44.55;100465.84;5131198;27;20215;-59
2023/06/07 03:17:48;;;;;;;19.38;10.07;;;;;;;18.08;44.68;100464.09;5130591;27;20218;-59
2023/06/07 03:20:18;;;;;;;22.63;10.05;;;;;;;18.09;44.49;100466.66;5129878;27;20197;-58
2023/06/07 03:22:46;;;;;;;14.48;8.95;;;;;;;18.06;44.25;100468.50;5136551;27;20205;-59
2023/06/07 03:25:14;;;;;;;15.63;8.57;;;;;;;18.02;44.33;100461.69;5135317;27;20227;-58
2023/06/07 03:27:42;;;;;;;22.15;8.23;;;;;;;18.00;43.90;100463.50;5135748;27;20648;-59
2023/06/07 03:30:12;;;;;;;15.23;9.13;;;;;;;17.99;44.07;100465.25;5131190;27;20203;-59
2023/06/07 03:32:40;;;;;;;11.15;7.50;;;;;;;18.00;44.09;100471.31;5131294;27;20207;-59
2023/06/07 03:35:09;;;;;;;12.77;7.53;;;;;;;18.00;43.93;100473.94;5132545;27;20221;-60
2023/06/07 03:37:38;;;;;;;13.55;7.25;;;;;;;17.99;44.31;100472.22;5131117;27;20204;-60
2023/06/07 03:40:08;;;;;;;12.02;7.10;;;;;;;17.99;44.23;100472.22;5132626;27;20282;-60
2023/06/07 03:42:36;;;;;;;11.15;6.88;;;;;;;18.00;44.45;100473.94;5131808;27;20195;-60
2023/06/07 03:45:08;;;;;;;14.02;6.65;;;;;;;18.03;44.35;100476.44;5134544;27;20195;-59
2023/06/07 03:47:37;;;;;;;11.98;6.03;;;;;;;18.05;44.22;100477.25;5129539;27;20195;-59
2023/06/07 03:50:06;;;;;;;9.82;6.15;;;;;;;18.05;44.21;100475.47;5132308;27;20546;-59
2023/06/07 03:52:34;;;;;;;12.43;5.72;;;;;;;18.06;44.17;100474.56;5132937;27;20210;-59
2023/06/07 03:55:04;;;;;;;13.00;6.30;;;;;;;18.08;44.34;100471.94;5130943;27;20223;-60
2023/06/07 03:57:32;;;;;;;11.63;5.70;;;;;;;18.14;44.29;100476.91;5134299;27;20203;-60
2023/06/07 04:00:01;;;;;;;8.75;5.35;;;;;;;18.19;44.06;100476.72;5128114;27;20199;-58
2023/06/07 04:02:29;;;;;;;7.20;4.78;;;;;;;18.23;44.12;100471.38;5129909;27;20203;-58
2023/06/07 04:04:58;;;;;;;8.07;4.72;;;;;;;18.26;43.75;100476.47;5129929;27;20199;-59
2023/06/07 04:07:27;;;;;;;8.05;4.80;;;;;;;18.31;43.86;100474.53;5131510;27;20607;-57
2023/06/07 04:09:55;;;;;;;11.90;4.45;;;;;;;18.34;43.72;100466.59;5129574;27;20203;-60
2023/06/07 04:12:24;;;;;;;7.22;5.10;;;;;;;18.40;43.36;100472.50;5129200;27;20208;-64
2023/06/07 04:14:52;;;;;;;10.18;4.78;;;;;;;18.45;43.49;100465.38;5134269;27;20211;-65
2023/06/07 04:17:20;;;;;;;11.13;4.50;;;;;;;18.53;43.25;100460.69;5127484;27;20221;-65
2023/06/07 04:19:54;;;;;;;7.05;4.47;;;;;;;18.64;43.11;100471.59;5128209;27;20213;-65
2023/06/07 04:22:22;;;;;;;8.13;4.43;;;;;;;18.73;42.99;100466.03;5129133;27;20199;-66
2023/06/07 04:24:51;;;;;;;8.25;4.68;;;;;;;18.83;42.73;100466.53;5133329;27;20649;-66
2023/06/07 04:27:19;;;;;;;6.47;3.90;;;;;;;18.93;42.68;100467.03;5134040;27;20695;-66
2023/06/07 04:29:53;;;;;;;7.93;4.30;;;;;;;19.04;42.30;100468.31;5133694;27;20588;-65
2023/06/07 04:32:21;;;;;;;8.50;4.80;;;;;;;19.15;42.28;100469.66;5132593;27;20657;-64
2023/06/07 04:34:51;;;;;;;9.35;4.47;;;;;;;19.23;41.96;100468.41;5131159;27;20260;-65
2023/06/07 04:37:19;;;;;;;10.13;4.75;;;;;;;19.34;41.95;100467.13;5131804;28;20239;-65
2023/06/07 04:39:48;;;;;;;12.00;4.13;;;;;;;19.41;41.65;100458.13;5127788;27;20626;-66
2023/06/07 04:42:17;;;;;;;12.07;4.88;;;;;;;19.46;41.30;100462.25;5131445;27;20203;-66
2023/06/07 04:44:45;;;;;;;6.63;3.97;;;;;;;19.49;41.22;100463.88;5136565;27;20201;-65
2023/06/07 04:47:15;;;;;;;8.25;4.35;;;;;;;19.53;41.16;100458.44;5130601;27;20209;-66
2023/06/07 04:49:43;;;;;;;7.93;3.60;;;;;;;19.57;41.44;100466.19;5128693;27;20657;-64
2023/06/07 04:52:12;;;;;;;7.68;4.57;;;;;;;19.64;41.24;100465.03;5133778;27;20226;-66
2023/06/07 04:54:46;;;;;;;7.88;4.20;;;;;;;19.73;41.30;100472.47;5136054;27;20246;-66
2023/06/07 04:57:15;;;;;;;11.00;4.63;;;;;;;19.81;41.29;100467.78;5134711;27;20222;-64
2023/06/07 04:59:44;;;;;;;8.18;4.18;;;;;;;19.92;41.03;100467.28;5137998;27;20704;-67
2023/06/07 05:02:12;;;;;;;9.90;3.75;;;;;;;20.00;40.83;100467.84;5135233;27;20278;-65
2023/06/07 05:04:42;;;;;;;5.55;4.20;;;;;;;20.13;40.65;100466.34;5134625;27;20277;-61
2023/06/07 05:07:13;;;;;;;7.53;3.83;;;;;;;20.28;40.64;100468.28;5132915;27;20191;-61
2023/06/07 05:09:41;;;;;;;12.00;4.53;;;;;;;20.37;40.27;100458.34;5129431;27;20239;-60
2023/06/07 05:12:10;;;;;;;5.60;3.90;;;;;;;20.54;40.08;100462.81;5129488;27;20281;-63
2023/06/07 05:14:38;;;;;;;5.93;3.70;;;;;;;20.74;39.65;100463.59;5130732;27;20203;-60
2023/06/07 05:17:07;;;;;;;8.27;4.38;;;;;;;20.99;39.19;100470.31;5125405;27;20709;-62
2023/06/07 05:19:35;;;;;;;6.93;4.07;;;;;;;21.27;39.02;100463.72;5134059;27;20201;-62
2023/06/07 05:22:05;;;;;;;5.45;3.50;;;;;;;21.58;37.82;100463.94;5137186;27;20239;-60
2023/06/07 05:24:33;;;;;;;13.10;3.70;;;;;;;21.77;37.46;100468.25;5135902;27;20287;-62
2023/06/07 05:27:01;;;;;;;8.65;3.60;;;;;;;21.98;36.87;100472.34;5135555;27;20199;-62
2023/06/07 05:29:29;;;;;;;9.45;4.00;;;;;;;22.10;36.59;100465.63;5134290;27;20625;-68
2023/06/07 05:31:57;;;;;;;6.03;3.80;;;;;;;22.32;36.18;100470.63;5130638;27;20773;-62
2023/06/07 05:34:25;;;;;;;4.28;3.88;;;;;;;22.56;36.01;100469.28;5138168;27;20234;-59
2023/06/07 05:36:54;;;;;;;6.80;4.38;;;;;;;22.85;35.67;100461.56;5145547;27;20226;-60
2023/06/07 05:39:24;;;;;;;8.55;3.92;;;;;;;23.13;34.86;100461.75;5138182;27;20203;-62
2023/06/07 05:41:52;;;;;;;9.68;5.20;;;;;;;23.38;34.51;100462.94;5137981;27;20203;-61
2023/06/07 05:44:20;;;;;;;8.55;3.70;;;;;;;23.63;34.10;100463.22;5138271;27;20213;-58
2023/06/07 05:46:47;;;;;;;8.73;3.65;;;;;;;23.90;33.75;100465.19;5136290;27;20199;-60
2023/06/07 05:49:15;;;;;;;5.95;3.17;;;;;;;24.11;33.33;100468.28;5128641;27;20237;-59
2023/06/07 05:51:44;;;;;;;5.18;3.42;;;;;;;24.25;33.01;100467.44;5127366;27;20203;-60
2023/06/07 05:54:12;;;;;;;6.13;3.10;;;;;;;24.31;32.47;100469.69;5132027;27;20573;-66
2023/06/07 05:56:41;;;;;;;6.63;3.00;;;;;;;24.36;32.05;100472.88;5130145;27;20230;-66
2023/06/07 05:59:09;;;;;;;6.60;3.75;;;;;;;24.43;31.68;100468.97;5131040;27;20199;-66
2023/06/07 06:01:37;;;;;;;11.75;3.20;;;;;;;24.58;31.69;100468.00;5130566;27;20238;-64
2023/06/07 06:04:05;;;;;;;10.68;3.78;;;;;;;24.75;31.19;100474.84;5131112;27;20207;-64
2023/06/07 06:06:33;;;;;;;6.38;3.63;;;;;;;24.91;31.16;100466.78;5133954;27;20225;-66
2023/06/07 06:09:02;;;;;;;6.72;3.55;;;;;;;25.05;31.00;100468.53;5134677;27;20707;-66
2023/06/07 06:11:30;;;;;;;8.35;3.40;;;;;;;25.15;30.56;100468.78;5133530;27;20622;-65
2023/06/07 06:14:00;;;;;;;8.25;3.55;;;;;;;25.30;30.32;100476.56;5133589;27;20294;-66
2023/06/07 06:16:28;;;;;;;6.97;3.05;;;;;;;25.42;30.25;100468.78;5133547;27;20727;-65
2023/06/07 06:18:55;;;;;;;11.98;3.45;;;;;;;25.53;30.15;100466.28;5134234;27;20203;-65
2023/06/07 06:21:23;;;;;;;6.90;3.47;;;;;;;25.63;29.85;100461.19;5132402;27;20566;-64
2023/06/07 06:23:51;;;;;;;8.85;3.25;;;;;;;25.78;29.41;100460.19;5134056;27;20332;-65
2023/06/07 06:26:21;;;;;;;11.70;3.50;;;;;;;25.92;29.07;100472.44;5134194;27;20196;-64
2023/06/07 06:28:49;;;;;;;5.78;3.00;;;;;;;25.97;29.00;100475.63;5134064;27;20294;-66
2023/06/07 06:31:19;;;;;;;4.93;3.03;;;;;;;26.08;29.08;100467.81;5130260;27;20199;-64
2023/06/07 06:33:47;;;;;;;3.97;3.00;;;;;;;26.25;28.57;100469.25;5132560;27;20207;-66
2023/06/07 06:36:15;;;;;;;8.02;2.85;;;;;;;26.43;28.55;100470.59;5134830;27;20246;-62
2023/06/07 06:38:44;;;;;;;9.68;2.97;;;;;;;26.69;28.13;100462.63;5134689;27;20290;-65
2023/06/07 06:41:12;;;;;;;8.25;2.88;;;;;;;26.95;27.89;100461.59;5131808;27;20195;-64
2023/06/07 06:43:40;;;;;;;4.55;3.05;;;;;;;27.18;27.95;100461.72;5127949;27;20294;-65
2023/06/07 06:46:08;;;;;;;6.95;3.28;;;;;;;27.40;27.52;100456.50;5132951;27;20242;-65
2023/06/07 06:48:37;;;;;;;6.20;3.10;;;;;;;27.58;26.91;100461.34;5127253;27;20202;-62
2023/06/07 06:51:05;;;;;;;4.35;2.97;;;;;;;27.73;27.24;100460.22;5133597;27;20195;-64
2023/06/07 06:53:34;;;;;;;3.28;2.88;;;;;;;27.98;26.85;100460.97;5130706;27;20207;-64
2023/06/07 06:56:03;;;;;;;7.10;2.70;;;;;;;28.33;26.41;100464.34;5132234;27;20215;-63
2023/06/07 06:58:34;;;;;;;8.30;2.80;;;;;;;28.68;25.93;100458.06;5129414;27;20211;-64
2023/06/07 07:01:03;;;;;;;4.00;2.78;;;;;;;29.04;25.03;100458.72;5129981;27;20204;-64
2023/06/07 07:03:31;;;;;;;8.48;3.25;;;;;;;29.23;24.49;100464.16;5132499;27;20203;-65
2023/06/07 07:06:00;;;;;;;5.80;2.80;;;;;;;29.31;24.32;100459.09;5133189;27;20208;-63
2023/06/07 07:08:28;;;;;;;5.93;3.95;;;;;;;29.31;24.16;100461.75;5132551;27;20195;-64
2023/06/07 07:10:56;;;;;;;6.15;2.92;;;;;;;29.27;24.45;100465.63;5127915;27;20246;-64
2023/06/07 07:13:27;;;;;;;9.38;2.83;;;;;;;29.27;24.58;100460.31;5132863;27;20203;-66
2023/06/07 07:15:54;;;;;;;9.45;3.95;;;;;;;29.27;24.82;100464.75;5134169;27;20207;-65
2023/06/07 07:18:23;;;;;;;10.48;3.67;;;;;;;29.25;24.74;100464.91;5132706;27;20256;-65
2023/06/07 07:20:51;;;;;;;6.50;3.17;;;;;;;29.31;24.72;100467.06;5126307;27;20654;-64
2023/06/07 07:23:20;;;;;;;6.50;3.00;;;;;;;29.46;24.61;100462.28;5123939;27;20194;-64
2023/06/07 07:25:48;;;;;;;5.40;2.50;;;;;;;29.47;24.23;100463.09;5121987;27;20255;-64
2023/06/07 07:28:16;;;;;;;4.97;2.47;;;;;;;29.45;24.49;100459.72;5123427;27;20204;-62
2023/06/07 07:30:45;;;;;;;5.75;3.15;;;;;;;29.32;24.39;100460.78;5129221;27;21812;-60
2023/06/07 07:33:13;;;;;;;4.80;2.95;;;;;;;29.12;24.27;100462.41;5130819;27;20294;-62
2023/06/07 07:35:41;;;;;;;4.60;2.83;;;;;;;29.00;24.92;100457.28;5127906;27;20562;-62
2023/06/07 07:38:09;;;;;;;5.15;3.00;;;;;;;28.82;24.92;100465.75;5131434;27;20740;-61
2023/06/07 07:40:39;;;;;;;3.63;2.67;;;;;;;28.71;25.85;100459.63;5130543;27;20199;-61
2023/06/07 07:43:09;;;;;;;4.13;2.90;;;;;;;28.51;25.92;100463.91;5132631;27;20227;-61
2023/06/07 07:45:37;;;;;;;6.00;2.55;;;;;;;28.08;26.11;100459.28;5132471;27;20293;-62
2023/06/07 07:48:05;;;;;;;4.72;2.60;;;;;;;27.65;27.30;100466.09;5128990;27;20202;-63
2023/06/07 07:50:37;;;;;;;2.85;2.28;;;;;;;27.30;28.20;100462.59;5130141;27;20203;-64
2023/06/07 07:53:06;;;;;;;6.50;3.03;;;;;;;26.96;28.63;100468.56;5127944;27;20547;-63
2023/06/07 07:55:34;;;;;;;8.85;2.92;;;;;;;26.70;28.75;100467.81;5132373;27;20199;-66
2023/06/07 07:58:04;;;;;;;5.28;3.22;;;;;;;26.52;29.51;100470.94;5132247;27;20251;-66
2023/06/07 08:00:32;;;;;;;3.95;2.75;;;;;;;26.40;29.52;100467.31;5132603;27;20667;-66
2023/06/07 08:03:00;;;;;;;7.00;2.85;;;;;;;26.33;29.84;100472.22;5132632;27;20203;-66
2023/06/07 08:05:28;;;;;;;2.95;2.42;;;;;;;26.30;29.71;100468.94;5130793;27;20199;-66
2023/06/07 08:07:56;;;;;;;3.83;2.65;;;;;;;26.23;29.67;100456.16;5132202;27;20246;-66
2023/06/07 08:10:25;;;;;;;4.53;3.22;;;;;;;26.20;29.48;100463.47;5118070;27;20238;-65
2023/06/07 08:12:53;;;;;;;6.90;3.80;;;;;;;26.17;29.61;100461.03;5129910;27;20294;-65
2023/06/07 08:15:22;;;;;;;3.60;2.58;;;;;;;26.09;29.56;100466.84;5130317;27;20671;-66
2023/06/07 08:17:50;;;;;;;4.88;3.28;;;;;;;26.05;29.59;100456.59;5132391;27;20215;-65
2023/06/07 08:20:18;;;;;;;7.63;3.03;;;;;;;26.02;29.53;100469.06;5131001;27;20540;-66
2023/06/07 08:22:50;;;;;;;3.40;2.83;;;;;;;26.00;30.14;100473.63;5131268;27;20298;-65
2023/06/07 08:25:18;;;;;;;3.53;2.40;;;;;;;26.03;30.48;100469.91;5129248;28;20235;-65
2023/06/07 08:27:48;;;;;;;5.63;2.80;;;;;;;26.08;30.39;100466.97;5129831;27;20206;-66
2023/06/07 08:30:16;;;;;;;4.05;2.78;;;;;;;26.13;30.21;100465.69;5127574;27;20219;-65
2023/06/07 08:32:46;;;;;;;4.68;3.08;;;;;;;26.14;29.39;100455.94;5130874;28;20276;-65
2023/06/07 08:35:14;;;;;;;3.80;2.58;;;;;;;26.08;29.78;100453.75;5129650;28;20574;-67
2023/06/07 08:37:42;;;;;;;7.95;2.95;;;;;;;26.11;30.17;100458.84;5130242;28;20222;-66
2023/06/07 08:40:11;;;;;;;4.70;2.97;;;;;;;26.17;29.90;100464.50;5132054;28;20306;-65
2023/06/07 08:42:40;;;;;;;4.32;2.80;;;;;;;26.22;29.75;100449.19;5130432;27;20207;-65
2023/06/07 08:45:08;;;;;;;2.95;2.65;;;;;;;26.25;28.87;100448.13;5130638;28;20200;-67
2023/06/07 08:47:37;;;;;;;3.95;2.80;;;;;;;26.25;28.62;100456.03;5129394;28;20199;-65
2023/06/07 08:50:12;;;;;;;4.60;3.05;;;;;;;26.27;28.70;100456.78;5131835;28;20566;-65
2023/06/07 08:52:41;;;;;;;5.05;2.88;;;;;;;26.27;28.58;100440.94;5129173;28;20207;-64
2023/06/07 08:55:11;;;;;;;3.17;2.88;;;;;;;26.30;28.33;100442.53;5126975;27;20211;-65
2023/06/07 08:57:40;;;;;;;3.88;2.70;;;;;;;26.39;28.80;100449.78;5129230;28;20214;-67
2023/06/07 09:00:10;;;;;;;4.60;3.45;;;;;;;26.50;28.80;100453.38;5128827;28;20200;-66
2023/06/07 09:02:39;;;;;;;7.25;2.88;;;;;;;26.58;28.24;100450.19;5128934;28;20289;-65
2023/06/07 09:05:10;;;;;;;5.40;2.90;;;;;;;26.66;28.27;100439.94;5128529;28;20564;-65
2023/06/07 09:07:38;;;;;;;3.83;2.58;;;;;;;26.70;27.78;100444.03;5131567;28;20278;-65
2023/06/07 09:10:08;;;;;;;4.63;2.72;;;;;;;26.67;27.56;100451.34;5126966;27;20407;-65
2023/06/07 09:12:36;;;;;;;4.30;2.50;;;;;;;26.59;27.16;100453.69;5130028;28;20199;-67
2023/06/07 09:15:07;;;;;;;3.70;2.35;;;;;;;26.52;27.37;100444.53;5131692;28;20314;-64
2023/06/07 09:17:55;;;;;;;3.55;2.20;;;;;;;26.56;27.53;100459.19;5129120;27;20211;-66
2023/06/07 09:20:26;;;;;;;5.28;2.70;;;;;;;26.59;27.68;100456.34;5128569;28;20230;-65
2023/06/07 09:23:02;;;;;;;3.47;2.80;;;;;;;26.64;27.71;100455.03;5126991;27;20590;-66
2023/06/07 09:25:31;;;;;;;3.63;2.22;;;;;;;26.70;27.84;100444.03;5129527;27;20231;-67
2023/06/07 09:28:02;;;;;;;5.82;2.63;;;;;;;26.73;27.19;100449.09;5127416;27;20566;-65
2023/06/07 09:30:30;;;;;;;3.55;2.22;;;;;;;26.83;25.90;100446.59;5132804;27;20625;-64
2023/06/07 09:32:58;;;;;;;3.22;2.15;;;;;;;26.86;25.92;100446.38;5134424;27;20206;-66
2023/06/07 09:35:28;;;;;;;4.07;2.58;;;;;;;26.84;25.64;100445.66;5130430;27;20535;-65
2023/06/07 09:37:57;;;;;;;4.82;2.65;;;;;;;26.82;25.89;100447.56;5133269;27;20234;-65
2023/06/07 09:40:26;;;;;;;4.22;2.35;;;;;;;26.85;25.90;100441.22;5131618;27;20191;-65
2023/06/07 09:42:58;;;;;;;2.80;2.20;;;;;;;26.93;26.17;100444.97;5133395;27;20218;-65
2023/06/07 09:45:28;;;;;;;5.68;2.35;;;;;;;27.06;25.38;100452.00;5133464;27;20203;-66
2023/06/07 09:48:03;;;;;;;2.60;2.28;;;;;;;27.16;25.24;100447.75;5129578;27;20222;-67
2023/06/07 09:50:33;;;;;;;4.32;2.65;;;;;;;27.29;24.96;100442.41;5127433;27;20205;-65
2023/06/07 09:53:01;;;;;;;7.07;2.60;;;;;;;27.39;25.52;100430.16;5129147;27;20223;-66
2023/06/07 09:55:31;;;;;;;7.60;3.10;;;;;;;27.35;24.77;100432.19;5123567;27;20237;-66
2023/06/07 09:57:59;;;;;;;22.08;2.72;;;;;;;27.23;24.87;100443.69;5131358;27;20215;-63
2023/06/07 10:00:27;;;;;;;4.28;3.10;;;;;;;27.25;25.24;100435.63;5130818;27;20214;-66
2023/06/07 10:03:05;;;;;;;4.05;2.75;;;;;;;27.37;24.25;100432.09;5132443;27;20632;-66
2023/06/07 10:05:35;;;;;;;5.80;2.35;;;;;;;27.56;23.87;100432.38;5133148;27;20199;-66
2023/06/07 10:08:05;;;;;;;4.63;2.05;;;;;;;27.74;23.50;100430.09;5134290;27;20203;-66
2023/06/07 10:10:34;;;;;;;6.60;2.38;;;;;;;27.80;23.06;100428.81;5132128;27;20238;-66
2023/06/07 10:13:04;;;;;;;2.72;2.22;;;;;;;28.01;22.88;100443.03;5129991;27;20616;-67
2023/06/07 10:15:35;;;;;;;4.30;2.20;;;;;;;28.35;22.54;100424.47;5119840;27;20195;-67
2023/06/07 10:18:17;;;;;;;3.83;2.17;;;;;;;28.94;22.26;100425.91;5131161;27;20219;-68
2023/06/07 10:20:53;;;;;;;4.80;2.88;;;;;;;29.84;21.43;100432.47;5128758;27;20259;-67
2023/06/07 10:23:29;;;;;;;5.10;2.30;;;;;;;30.68;21.00;100416.25;5124781;27;20606;-67
2023/06/07 10:26:04;;;;;;;2.70;2.50;;;;;;;31.51;19.39;100422.00;5086558;28;20657;-66
2023/06/07 10:28:37;;;;;;;5.78;2.85;;;;;;;32.41;18.13;100418.75;5087546;28;20286;-65
2023/06/07 10:31:10;;;;;;;4.80;1.88;;;;;;;33.17;17.78;100423.66;5091544;28;20208;-66
2023/06/07 10:33:39;;;;;;;2.25;2.08;;;;;;;33.53;17.14;100418.28;5090766;28;20651;-67
2023/06/07 10:36:10;;;;;;;4.32;2.22;;;;;;;33.77;17.36;100422.09;5088500;28;20211;-68
2023/06/07 10:38:38;;;;;;;4.35;2.25;;;;;;;34.16;17.08;100411.75;5090776;28;20223;-68
2023/06/07 10:41:08;;;;;;;3.53;2.25;;;;;;;34.55;16.62;100404.06;5092987;28;20212;-67
2023/06/07 10:43:39;;;;;;;2.08;1.98;;;;;;;35.00;16.49;100402.78;5089276;28;20623;-68
2023/06/07 10:46:21;;;;;;;2.55;2.20;;;;;;;35.30;16.18;100395.88;5090488;28;20196;-65
2023/06/07 10:48:49;;;;;;;2.65;2.17;;;;;;;35.36;15.96;100394.38;5092686;28;20242;-67
2023/06/07 10:51:39;;;;;;;6.07;2.20;;;;;;;33.99;17.18;100400.19;5092527;28;20265;-69
2023/06/07 10:54:07;;;;;;;3.05;2.65;;;;;;;32.17;19.07;100411.25;5091695;28;20208;-68
2023/06/07 10:56:37;;;;;;;4.82;2.28;;;;;;;30.84;20.43;100409.56;5090878;28;20215;-67
2023/06/07 10:59:21;;;;;;;2.65;2.42;;;;;;;29.74;21.96;100420.09;5091229;28;20216;-66
2023/06/07 11:01:52;;;;;;;7.82;2.95;;;;;;;29.31;22.90;100416.63;5086232;28;20515;-67
2023/06/07 11:04:55;;;;;;;3.95;2.17;;;;;;;30.55;22.67;100399.69;5092587;28;20213;-68
2023/06/07 11:07:27;;;;;;;2.72;2.42;;;;;;;31.90;20.83;100398.78;5088701;28;20620;-67
2023/06/07 11:10:33;;;;;;;7.00;2.38;;;;;;;31.44;20.70;100399.56;5089014;28;20207;-68
2023/06/07 11:13:03;;;;;;;6.22;2.50;;;;;;;30.44;21.94;100402.47;5091994;28;20201;-68
2023/06/07 11:15:35;;;;;;;4.15;2.80;;;;;;;29.66;22.66;100399.53;5092597;28;20208;-67
2023/06/07 11:18:07;;;;;;;3.60;2.35;;;;;;;29.21;23.51;100402.44;5088094;28;20571;-67
2023/06/07 11:20:50;;;;;;;5.03;2.58;;;;;;;30.17;23.23;100398.66;5091969;28;20731;-67
2023/06/07 11:23:30;;;;;;;9.30;2.40;;;;;;;31.48;21.25;100398.31;5092373;28;20261;-68
2023/06/07 11:26:08;;;;;;;2.38;2.13;;;;;;;32.34;19.89;100392.78;5130099;27;20231;-67
2023/06/07 11:28:38;;;;;;;4.65;2.20;;;;;;;32.95;19.37;100394.75;5132827;27;20199;-67
2023/06/07 11:31:09;;;;;;;8.18;2.92;;;;;;;33.37;18.66;100394.09;5132110;27;20629;-66
2023/06/07 11:33:38;;;;;;;5.72;2.30;;;;;;;33.54;18.56;100389.72;5131932;27;20222;-67